Time;durP1;ratioP1;P1;durP2;ratioP2;P2;SDS_P1;SDS_P2;PMS_P1;PMS_P2;Temp;Humidity;BMP_temperature;BMP_pressure;BME280_temperature;BME280_humidity;BME280_pressure;Samples;Min_cycle;Max_cycle;Signal;HPM_P1;HPM_P2
2023/05/09 00:01:49;;;;;;;54.90;37.42;;;14.60;99.90;;;;;;5038298;28;20063;-45
2023/05/09 00:04:15;;;;;;;47.33;36.65;;;14.60;99.90;;;;;;5038505;28;20479;-43
2023/05/09 00:06:40;;;;;;;50.67;36.85;;;14.60;99.90;;;;;;5037167;28;20112;-46
2023/05/09 00:09:06;;;;;;;52.03;37.38;;;14.60;99.90;;;;;;5038639;28;20827;-44
2023/05/09 00:11:32;;;;;;;49.92;36.97;;;14.60;99.90;;;;;;5038191;28;20063;-43
2023/05/09 00:13:58;;;;;;;51.70;36.72;;;14.60;99.90;;;;;;5037244;28;20254;-41
2023/05/09 00:16:23;;;;;;;48.72;35.75;;;14.60;99.90;;;;;;5018587;28;20080;-45
2023/05/09 00:18:50;;;;;;;48.63;35.97;;;14.50;99.90;;;;;;5019471;28;20106;-47
2023/05/09 00:21:16;;;;;;;51.78;37.75;;;14.50;99.90;;;;;;5038128;28;20419;-45
2023/05/09 00:23:41;;;;;;;50.97;35.80;;;14.50;99.90;;;;;;5037635;28;20198;-42
2023/05/09 00:26:08;;;;;;;53.75;36.13;;;14.50;99.90;;;;;;5037266;28;20128;-44
2023/05/09 00:28:33;;;;;;;55.63;37.80;;;14.40;99.90;;;;;;5036709;28;20052;-44
2023/05/09 00:30:59;;;;;;;52.15;36.30;;;14.40;99.90;;;;;;5037865;28;20055;-44
2023/05/09 00:33:25;;;;;;;60.00;40.17;;;14.30;99.90;;;;;;5024708;28;20047;-40
2023/05/09 00:35:55;;;;;;;51.60;36.05;;;14.30;99.90;;;;;;5037753;28;20052;-39
2023/05/09 00:38:22;;;;;;;58.90;37.35;;;14.30;99.90;;;;;;5037163;28;20794;-44
2023/05/09 00:40:48;;;;;;;50.95;34.20;;;14.30;99.90;;;;;;5019828;28;20092;-42
2023/05/09 00:43:15;;;;;;;54.35;35.97;;;14.20;99.90;;;;;;5019275;28;20534;-41
2023/05/09 00:45:42;;;;;;;53.08;37.53;;;14.20;99.90;;;;;;5036207;28;20076;-41
2023/05/09 00:48:07;;;;;;;58.00;36.65;;;14.10;99.90;;;;;;5018048;28;20176;-40
2023/05/09 00:50:33;;;;;;;56.38;37.17;;;14.10;99.90;;;;;;5037299;28;20049;-42
2023/05/09 00:52:59;;;;;;;51.22;35.10;;;14.10;99.90;;;;;;5036915;28;20052;-42
2023/05/09 00:55:26;;;;;;;54.22;37.50;;;14.20;99.90;;;;;;5037867;28;20045;-37
2023/05/09 00:57:51;;;;;;;55.28;37.60;;;14.10;99.90;;;;;;5035569;28;20132;-42
2023/05/09 01:00:17;;;;;;;51.88;36.88;;;14.10;99.90;;;;;;5037249;28;20051;-39
2023/05/09 01:02:46;;;;;;;61.17;36.33;;;14.20;99.90;;;;;;5037388;28;20088;-42
2023/05/09 01:05:12;;;;;;;61.40;38.83;;;14.20;99.90;;;;;;5037900;28;20044;-43
2023/05/09 01:08:03;;;;;;;60.38;37.50;;;14.20;99.90;;;;;;5035866;28;20159;-44
2023/05/09 01:10:42;;;;;;;61.10;38.40;;;14.20;99.90;;;;;;5037714;28;20094;-44
2023/05/09 01:13:30;;;;;;;55.65;37.72;;;14.20;99.90;;;;;;5037079;28;20486;-43
2023/05/09 01:16:04;;;;;;;62.38;39.58;;;14.20;99.90;;;;;;5037134;28;20278;-40
2023/05/09 01:18:39;;;;;;;58.97;39.38;;;14.10;99.90;;;;;;5036373;28;20057;-44
2023/05/09 01:21:13;;;;;;;58.00;40.67;;;14.20;99.90;;;;;;5037185;28;20048;-37
2023/05/09 01:23:42;;;;;;;54.35;37.38;;;14.10;99.90;;;;;;5036695;28;20513;-46
2023/05/09 01:26:20;;;;;;;60.78;38.90;;;14.10;99.90;;;;;;5037084;28;20540;-40
2023/05/09 01:29:24;;;;;;;52.10;36.58;;;14.10;99.90;;;;;;5035996;28;20091;-42
2023/05/09 01:31:52;;;;;;;55.15;37.83;;;14.10;99.90;;;;;;5021368;28;20408;-45
2023/05/09 01:34:21;;;;;;;54.45;37.42;;;14.10;99.90;;;;;;5036150;28;20045;-41
2023/05/09 01:36:49;;;;;;;54.67;37.50;;;14.10;99.90;;;;;;5017346;28;20450;-43
2023/05/09 01:39:16;;;;;;;62.50;38.25;;;14.10;99.90;;;;;;5036661;28;20132;-40
2023/05/09 01:41:42;;;;;;;60.90;38.53;;;14.10;99.90;;;;;;5017343;28;20074;-44
2023/05/09 01:44:11;;;;;;;61.53;39.75;;;14.10;99.90;;;;;;5035652;28;20345;-42
2023/05/09 01:46:38;;;;;;;62.42;38.63;;;14.10;99.90;;;;;;5035284;28;20136;-41
2023/05/09 01:49:06;;;;;;;58.70;38.78;;;14.20;99.90;;;;;;5036630;28;20060;-41
2023/05/09 01:51:35;;;;;;;58.65;39.75;;;14.10;99.90;;;;;;5005664;28;20056;-45
2023/05/09 01:54:02;;;;;;;58.25;38.80;;;14.10;99.90;;;;;;5035430;28;20125;-47
2023/05/09 01:56:29;;;;;;;63.05;40.95;;;14.10;99.90;;;;;;5035011;28;20555;-42
2023/05/09 01:58:57;;;;;;;60.78;39.42;;;14.20;99.90;;;;;;5036541;28;20040;-46
2023/05/09 02:01:23;;;;;;;61.17;38.53;;;14.10;99.90;;;;;;5018292;28;20106;-45
2023/05/09 02:03:51;;;;;;;62.25;39.30;;;14.10;99.90;;;;;;5035336;28;20075;-40
2023/05/09 02:06:20;;;;;;;67.57;39.00;;;14.10;99.90;;;;;;5017973;28;20044;-42
2023/05/09 02:08:48;;;;;;;58.92;38.65;;;14.10;99.90;;;;;;5034783;28;20140;-41
2023/05/09 02:11:13;;;;;;;70.25;41.85;;;14.10;99.90;;;;;;5035652;28;20048;-43
2023/05/09 02:13:39;;;;;;;56.90;37.25;;;14.10;99.90;;;;;;5035355;28;20071;-42
2023/05/09 02:16:06;;;;;;;62.58;39.95;;;14.10;99.90;;;;;;5035854;28;20055;-42
2023/05/09 02:18:33;;;;;;;62.78;39.30;;;14.10;99.90;;;;;;5035089;28;20040;-39
2023/05/09 02:20:59;;;;;;;62.55;38.38;;;14.10;99.90;;;;;;5036098;28;20053;-43
2023/05/09 02:23:25;;;;;;;61.17;39.75;;;14.10;99.90;;;;;;5000062;28;20055;-39
2023/05/09 02:25:53;;;;;;;64.45;39.92;;;14.10;99.90;;;;;;5034544;28;20052;-38
2023/05/09 02:28:21;;;;;;;59.78;41.53;;;14.20;99.90;;;;;;5035012;28;20137;-42
2023/05/09 02:30:48;;;;;;;66.22;40.33;;;14.10;99.90;;;;;;5017907;28;20222;-46
2023/05/09 02:33:14;;;;;;;66.55;40.30;;;14.20;99.90;;;;;;5035030;28;20053;-41
2023/05/09 02:35:43;;;;;;;72.45;41.50;;;14.10;99.90;;;;;;5034884;28;20095;-45
2023/05/09 02:38:10;;;;;;;66.80;40.63;;;14.10;99.90;;;;;;5034978;28;20063;-41
2023/05/09 02:40:36;;;;;;;67.82;40.90;;;14.10;99.90;;;;;;5035981;28;20045;-39
2023/05/09 02:43:01;;;;;;;67.68;41.50;;;14.10;99.90;;;;;;5034456;28;20060;-46
2023/05/09 02:45:27;;;;;;;68.15;41.63;;;14.20;99.90;;;;;;5034882;28;20045;-40
2023/05/09 02:47:53;;;;;;;64.38;39.53;;;14.10;99.90;;;;;;5035156;28;20044;-42
2023/05/09 02:50:18;;;;;;;59.42;38.72;;;14.10;99.90;;;;;;5035233;28;20487;-43
2023/05/09 02:52:44;;;;;;;64.85;41.35;;;14.20;99.90;;;;;;5035386;28;20060;-39
2023/05/09 02:55:10;;;;;;;56.83;38.53;;;14.20;99.90;;;;;;5035407;28;20495;-40
2023/05/09 02:57:36;;;;;;;57.10;39.97;;;14.20;99.90;;;;;;5016559;28;20057;-44
2023/05/09 03:00:03;;;;;;;58.55;38.90;;;14.20;99.90;;;;;;5035430;28;20138;-39
2023/05/09 03:02:28;;;;;;;73.82;41.92;;;14.20;99.90;;;;;;5017514;28;20057;-45
2023/05/09 03:04:54;;;;;;;58.42;38.92;;;14.20;99.90;;;;;;5034824;28;20617;-43
2023/05/09 03:07:20;;;;;;;67.97;41.50;;;14.20;99.90;;;;;;5033657;28;20108;-40
2023/05/09 03:09:45;;;;;;;76.90;42.55;;;14.20;99.90;;;;;;5035472;28;20044;-36
2023/05/09 03:12:11;;;;;;;65.75;40.78;;;14.20;99.90;;;;;;5017259;28;20569;-41
2023/05/09 03:14:36;;;;;;;65.70;41.08;;;14.20;99.90;;;;;;5036214;28;20102;-47
2023/05/09 03:17:02;;;;;;;83.00;44.83;;;14.20;99.90;;;;;;5038402;28;20103;-38
2023/05/09 03:19:28;;;;;;;69.65;41.78;;;14.20;99.90;;;;;;5039520;28;20402;-38
2023/05/09 03:21:53;;;;;;;73.95;43.40;;;14.20;99.90;;;;;;5021330;28;20191;-42
2023/05/09 03:24:21;;;;;;;77.82;44.50;;;14.20;99.90;;;;;;5039706;28;20517;-44
2023/05/09 03:26:47;;;;;;;74.32;42.83;;;14.20;99.90;;;;;;5038649;28;20095;-37
2023/05/09 03:29:13;;;;;;;64.15;41.55;;;14.20;99.90;;;;;;5039438;28;20147;-36
2023/05/09 03:31:38;;;;;;;64.22;41.70;;;14.20;99.90;;;;;;5038343;28;20493;-43
2023/05/09 03:34:04;;;;;;;66.78;41.45;;;14.20;99.90;;;;;;5039005;28;20049;-42
2023/05/09 03:36:31;;;;;;;58.28;41.28;;;14.20;99.90;;;;;;5037522;28;20072;-45
2023/05/09 03:38:56;;;;;;;67.72;42.75;;;14.20;99.90;;;;;;5039622;28;20151;-41
2023/05/09 03:41:22;;;;;;;73.05;43.55;;;14.20;99.90;;;;;;5038855;28;20048;-39
2023/05/09 03:43:47;;;;;;;73.45;44.17;;;14.20;99.90;;;;;;5020640;28;20040;-42
2023/05/09 03:46:13;;;;;;;67.82;41.15;;;14.20;99.90;;;;;;5019163;28;20076;-43
2023/05/09 03:48:39;;;;;;;73.47;44.10;;;14.20;99.90;;;;;;5038455;28;20114;-47
2023/05/09 03:51:04;;;;;;;65.03;42.25;;;14.20;99.90;;;;;;5038698;28;20055;-41
2023/05/09 03:53:30;;;;;;;66.32;40.13;;;14.20;99.90;;;;;;5039033;28;20091;-42
2023/05/09 03:55:56;;;;;;;67.22;42.85;;;14.10;99.90;;;;;;5038223;28;20061;-37
2023/05/09 03:58:21;;;;;;;84.22;46.50;;;14.10;99.90;;;;;;5038066;28;20048;-41
2023/05/09 04:00:47;;;;;;;69.78;41.95;;;14.20;99.90;;;;;;5038026;28;20159;-39
2023/05/09 04:03:13;;;;;;;72.85;44.25;;;14.10;99.90;;;;;;5038385;28;20056;-42
2023/05/09 04:05:39;;;;;;;75.88;44.67;;;14.10;99.90;;;;;;5037451;28;20498;-40
2023/05/09 04:08:05;;;;;;;78.15;45.08;;;14.10;99.90;;;;;;5038282;28;20561;-39
2023/05/09 04:10:31;;;;;;;71.70;41.55;;;14.10;99.90;;;;;;5038739;28;20482;-44
2023/05/09 04:12:57;;;;;;;75.10;43.70;;;14.10;99.90;;;;;;5038981;28;20138;-39
2023/05/09 04:15:23;;;;;;;75.22;46.10;;;14.10;99.90;;;;;;5019078;28;20650;-42
2023/05/09 04:17:49;;;;;;;68.95;42.33;;;14.20;99.90;;;;;;5037401;28;20045;-40
2023/05/09 04:20:14;;;;;;;81.20;47.03;;;14.20;99.90;;;;;;5019184;28;20049;-43
2023/05/09 04:22:40;;;;;;;74.30;46.20;;;14.10;99.90;;;;;;5037670;28;20159;-45
2023/05/09 04:25:07;;;;;;;74.75;44.28;;;14.20;99.90;;;;;;5038105;28;20118;-40
2023/05/09 04:27:32;;;;;;;76.50;45.67;;;14.20;99.90;;;;;;5019193;28;20104;-36
2023/05/09 04:29:59;;;;;;;84.32;46.03;;;14.20;99.90;;;;;;5038412;28;20136;-43
2023/05/09 04:32:25;;;;;;;77.50;44.60;;;14.20;99.90;;;;;;5038161;28;20045;-40
2023/05/09 04:34:51;;;;;;;84.65;45.83;;;14.30;99.90;;;;;;5037306;28;20111;-38
2023/05/09 04:37:17;;;;;;;78.90;44.47;;;14.20;99.90;;;;;;5037505;28;20396;-40
2023/05/09 04:39:43;;;;;;;80.05;46.38;;;14.20;99.90;;;;;;5037936;28;20510;-39
2023/05/09 04:42:09;;;;;;;85.25;46.85;;;14.20;99.90;;;;;;5038233;28;20542;-39
2023/05/09 04:44:35;;;;;;;78.07;46.45;;;14.20;99.90;;;;;;5019984;28;20053;-40
2023/05/09 04:47:01;;;;;;;82.95;46.95;;;14.20;99.90;;;;;;5037293;28;20543;-45
2023/05/09 04:49:26;;;;;;;89.05;49.55;;;14.20;99.90;;;;;;5038196;28;20512;-40
2023/05/09 04:51:52;;;;;;;89.35;48.25;;;14.20;99.90;;;;;;5038227;28;20087;-39
2023/05/09 04:54:17;;;;;;;100.03;50.25;;;14.30;99.90;;;;;;5037799;28;20467;-36
2023/05/09 04:56:43;;;;;;;89.40;50.90;;;14.30;99.90;;;;;;5036353;28;20047;-41
2023/05/09 04:59:09;;;;;;;95.57;49.35;;;14.30;99.90;;;;;;5037708;28;20220;-41
2023/05/09 05:01:34;;;;;;;83.03;48.47;;;14.20;99.90;;;;;;5036161;28;20110;-46
2023/05/09 05:04:00;;;;;;;71.13;46.83;;;14.20;99.90;;;;;;5038204;28;20146;-47
2023/05/09 05:06:25;;;;;;;77.82;48.17;;;14.30;99.90;;;;;;5037306;28;20499;-40
2023/05/09 05:08:51;;;;;;;73.43;46.42;;;14.30;99.90;;;;;;5037167;28;20045;-37
2023/05/09 05:11:17;;;;;;;75.72;46.03;;;14.30;99.90;;;;;;5037102;28;20085;-45
2023/05/09 05:13:43;;;;;;;87.18;51.45;;;14.30;99.90;;;;;;5018923;28;20049;-40
2023/05/09 05:16:09;;;;;;;90.85;51.13;;;14.40;99.90;;;;;;5018194;28;20049;-39
2023/05/09 05:18:34;;;;;;;91.72;53.17;;;14.40;99.90;;;;;;5036658;28;20052;-42
2023/05/09 05:21:00;;;;;;;88.65;53.55;;;14.40;99.90;;;;;;5019745;28;20060;-48
2023/05/09 05:23:26;;;;;;;91.00;51.80;;;14.40;99.90;;;;;;5019190;28;20240;-41
2023/05/09 05:25:52;;;;;;;93.68;51.75;;;14.50;99.90;;;;;;5035823;28;20569;-46
2023/05/09 05:28:18;;;;;;;91.15;51.15;;;14.50;99.90;;;;;;5035985;28;20332;-41
2023/05/09 05:30:44;;;;;;;91.00;53.33;;;14.60;99.90;;;;;;5036708;28;20055;-40
2023/05/09 05:33:09;;;;;;;95.30;54.20;;;14.60;99.90;;;;;;5035713;28;20044;-42
2023/05/09 05:35:35;;;;;;;98.70;54.97;;;14.80;99.90;;;;;;5036464;28;20048;-42
2023/05/09 05:38:01;;;;;;;90.80;52.83;;;14.80;99.90;;;;;;5035575;28;20107;-44
2023/05/09 05:40:26;;;;;;;97.43;56.40;;;14.90;99.90;;;;;;5036311;28;20053;-43
2023/05/09 05:42:53;;;;;;;90.97;55.03;;;15.00;99.90;;;;;;5036256;28;20045;-42
2023/05/09 05:45:19;;;;;;;87.85;55.75;;;15.20;99.90;;;;;;5017517;28;20099;-45
2023/05/09 05:47:44;;;;;;;87.95;55.35;;;15.30;99.90;;;;;;5035512;28;20156;-46
2023/05/09 05:50:10;;;;;;;90.90;55.95;;;15.40;99.90;;;;;;5018563;28;20190;-39
2023/05/09 05:52:40;;;;;;;93.60;53.95;;;15.50;99.90;;;;;;5036437;28;20091;-38
2023/05/09 05:55:06;;;;;;;86.47;53.67;;;15.50;99.90;;;;;;5035996;28;20136;-45
2023/05/09 05:57:34;;;;;;;85.20;55.22;;;15.60;99.90;;;;;;5017965;28;20048;-42
2023/05/09 05:59:59;;;;;;;91.45;55.22;;;15.50;99.90;;;;;;5036249;28;20175;-44
2023/05/09 06:02:25;;;;;;;92.47;56.78;;;15.50;99.90;;;;;;4984537;28;20099;-42
2023/05/09 06:04:51;;;;;;;93.35;56.30;;;15.50;99.90;;;;;;5035331;28;20136;-39
2023/05/09 06:07:17;;;;;;;86.32;54.70;;;15.40;99.90;;;;;;5026072;28;20120;-44
2023/05/09 06:09:42;;;;;;;96.55;58.35;;;15.50;99.90;;;;;;5034290;28;20439;-39
2023/05/09 06:12:08;;;;;;;105.07;61.70;;;15.50;99.90;;;;;;5035125;28;20394;-44
2023/05/09 06:14:34;;;;;;;97.47;59.08;;;15.50;99.90;;;;;;5035602;28;20044;-41
2023/05/09 06:17:00;;;;;;;100.60;60.83;;;15.40;99.90;;;;;;5033560;28;20048;-46
2023/05/09 06:19:26;;;;;;;96.40;59.22;;;15.50;99.90;;;;;;5035581;28;20049;-42
2023/05/09 06:21:51;;;;;;;100.85;60.15;;;15.50;99.90;;;;;;5035016;28;20052;-43
2023/05/09 06:24:17;;;;;;;100.30;63.05;;;15.50;99.90;;;;;;5036143;28;20053;-45
2023/05/09 06:26:43;;;;;;;97.80;61.65;;;15.60;99.90;;;;;;5034453;28;20048;-40
2023/05/09 06:29:09;;;;;;;97.03;60.78;;;15.70;99.90;;;;;;5017771;28;20052;-42
2023/05/09 06:31:37;;;;;;;97.72;62.20;;;15.80;99.90;;;;;;5035009;28;20499;-38
2023/05/09 06:34:03;;;;;;;103.78;61.28;;;15.90;99.90;;;;;;5035301;28;20055;-42
2023/05/09 06:36:29;;;;;;;94.72;60.42;;;16.00;99.90;;;;;;5015916;28;20511;-40
2023/05/09 06:38:55;;;;;;;92.65;60.88;;;16.10;99.90;;;;;;5035518;28;20052;-37
2023/05/09 06:41:21;;;;;;;93.22;58.75;;;16.20;99.90;;;;;;5017195;28;20075;-43
2023/05/09 06:43:47;;;;;;;93.75;58.90;;;16.20;99.90;;;;;;5035406;28;20736;-43
2023/05/09 06:46:12;;;;;;;97.97;61.67;;;16.20;99.90;;;;;;5033851;28;20057;-39
2023/05/09 06:48:38;;;;;;;99.47;64.28;;;16.20;99.90;;;;;;5035368;28;20049;-43
2023/05/09 06:51:04;;;;;;;97.30;63.78;;;16.10;99.90;;;;;;5035072;28;20529;-40
2023/05/09 06:53:29;;;;;;;99.45;62.42;;;16.10;99.90;;;;;;5035348;28;20053;-42
2023/05/09 06:55:55;;;;;;;91.72;61.35;;;16.00;99.90;;;;;;5016833;28;20048;-47
2023/05/09 06:58:21;;;;;;;94.30;62.92;;;16.10;99.90;;;;;;5016706;28;20414;-45
2023/05/09 07:00:47;;;;;;;98.60;61.63;;;16.10;99.90;;;;;;5035421;28;20062;-43
2023/05/09 07:03:13;;;;;;;97.90;63.30;;;16.10;99.90;;;;;;5019446;28;20574;-38
2023/05/09 07:05:38;;;;;;;103.18;63.97;;;16.10;99.90;;;;;;5001087;28;20545;-49
2023/05/09 07:08:04;;;;;;;100.00;64.50;;;16.10;99.90;;;;;;5014961;28;20037;-43
2023/05/09 07:10:30;;;;;;;102.05;64.20;;;16.10;99.90;;;;;;5017973;28;20399;-51
2023/05/09 07:12:56;;;;;;;97.38;65.40;;;16.10;99.90;;;;;;5000998;28;20079;-36
2023/05/09 07:15:21;;;;;;;99.05;65.22;;;16.10;99.90;;;;;;5012549;28;20045;-39
2023/05/09 07:17:47;;;;;;;89.95;60.15;;;16.10;99.90;;;;;;5013984;28;20045;-46
2023/05/09 07:20:13;;;;;;;80.30;56.90;;;16.10;99.90;;;;;;5014366;28;20499;-43
2023/05/09 07:22:38;;;;;;;81.60;58.25;;;16.20;99.90;;;;;;5013254;28;20248;-41
2023/05/09 07:25:07;;;;;;;84.35;58.70;;;16.20;99.90;;;;;;5018178;28;20076;-40
2023/05/09 07:27:33;;;;;;;83.70;55.85;;;16.20;99.90;;;;;;5014681;28;20061;-39
2023/05/09 07:29:58;;;;;;;71.85;51.83;;;16.30;99.90;;;;;;5017456;28;20045;-42
2023/05/09 07:32:27;;;;;;;66.38;47.55;;;16.40;99.90;;;;;;5013668;28;20771;-41
2023/05/09 07:34:53;;;;;;;62.30;46.80;;;16.30;99.90;;;;;;5032123;28;20053;-40
2023/05/09 07:37:19;;;;;;;61.88;46.50;;;16.30;99.90;;;;;;5032850;28;20191;-40
2023/05/09 07:39:46;;;;;;;64.53;46.10;;;16.20;99.90;;;;;;5034905;28;20049;-43
2023/05/09 07:42:12;;;;;;;61.13;46.67;;;16.20;99.90;;;;;;5016954;28;20049;-44
2023/05/09 07:44:38;;;;;;;65.00;45.17;;;16.20;99.90;;;;;;5016349;28;20124;-41
2023/05/09 07:47:04;;;;;;;53.00;40.58;;;16.20;99.90;;;;;;5034618;28;20387;-45
2023/05/09 07:49:31;;;;;;;52.47;38.85;;;16.20;99.90;;;;;;5035385;28;20506;-46
2023/05/09 07:51:56;;;;;;;48.25;37.38;;;16.20;99.90;;;;;;5035495;28;20582;-37
2023/05/09 07:54:22;;;;;;;46.67;35.22;;;16.10;99.90;;;;;;5034949;28;20056;-40
2023/05/09 07:56:48;;;;;;;43.92;35.13;;;16.00;99.90;;;;;;5033036;28;20486;-38
2023/05/09 07:59:13;;;;;;;47.28;35.30;;;16.00;99.90;;;;;;5033025;28;20048;-40
2023/05/09 08:01:39;;;;;;;44.28;34.00;;;15.90;99.90;;;;;;5014162;28;20468;-42
2023/05/09 08:04:05;;;;;;;40.38;32.88;;;16.00;99.90;;;;;;5034870;28;20048;-40
2023/05/09 08:06:31;;;;;;;44.20;33.00;;;16.00;99.90;;;;;;5025461;28;20436;-44
2023/05/09 08:08:57;;;;;;;48.10;33.25;;;16.00;99.90;;;;;;5036162;28;20060;-42
2023/05/09 08:11:23;;;;;;;39.45;30.75;;;16.00;99.90;;;;;;5036106;28;20503;-38
2023/05/09 08:13:49;;;;;;;41.78;32.35;;;16.00;99.90;;;;;;5023834;28;20454;-43
2023/05/09 08:16:16;;;;;;;43.33;32.45;;;16.00;99.90;;;;;;5036799;28;20088;-43
2023/05/09 08:18:42;;;;;;;38.42;30.98;;;16.10;99.90;;;;;;5037377;28;20505;-42
2023/05/09 08:21:08;;;;;;;48.10;33.45;;;16.10;99.90;;;;;;5038431;28;20044;-43
2023/05/09 08:23:34;;;;;;;38.47;30.40;;;16.20;99.90;;;;;;5020667;28;20055;-40
2023/05/09 08:25:59;;;;;;;36.55;28.80;;;16.20;99.90;;;;;;5032218;28;20048;-46
2023/05/09 08:28:27;;;;;;;34.30;26.80;;;16.30;99.90;;;;;;5012764;28;20049;-41
2023/05/09 08:30:54;;;;;;;32.78;26.10;;;16.30;99.90;;;;;;5032556;28;20622;-45
2023/05/09 08:33:19;;;;;;;34.30;25.10;;;16.30;99.90;;;;;;5033194;28;20669;-42
2023/05/09 08:35:50;;;;;;;32.53;24.15;;;16.30;99.90;;;;;;5034987;28;20052;-46
2023/05/09 08:38:16;;;;;;;31.23;24.33;;;16.40;99.90;;;;;;5036991;28;20044;-45
2023/05/09 08:40:41;;;;;;;33.40;26.05;;;16.50;99.90;;;;;;5033383;28;20423;-37
2023/05/09 08:43:08;;;;;;;38.70;26.65;;;16.60;99.90;;;;;;5033477;28;20357;-47
2023/05/09 08:45:39;;;;;;;36.65;26.92;;;16.60;99.90;;;;;;5033760;28;20128;-42
2023/05/09 08:48:05;;;;;;;30.38;25.92;;;16.70;99.90;;;;;;5015767;28;20064;-47
2023/05/09 08:50:31;;;;;;;31.25;25.70;;;16.80;99.90;;;;;;5034869;28;20106;-44
2023/05/09 08:52:57;;;;;;;32.58;26.48;;;16.90;99.90;;;;;;5016050;28;20087;-41
2023/05/09 08:55:24;;;;;;;32.28;25.42;;;17.00;99.90;;;;;;5032195;28;20124;-42
2023/05/09 08:57:51;;;;;;;33.60;25.77;;;17.00;99.90;;;;;;5030974;28;20049;-42
2023/05/09 09:00:19;;;;;;;32.80;25.70;;;17.10;99.90;;;;;;5032264;28;20037;-45
2023/05/09 09:02:45;;;;;;;31.75;26.92;;;17.20;99.90;;;;;;5015014;28;20543;-44
2023/05/09 09:05:11;;;;;;;34.65;26.92;;;17.20;99.90;;;;;;4997672;28;20087;-39
2023/05/09 09:07:39;;;;;;;30.73;24.80;;;17.20;99.90;;;;;;5032202;28;20049;-48
2023/05/09 09:10:08;;;;;;;34.17;27.08;;;17.30;99.90;;;;;;5033365;28;20128;-48
2023/05/09 09:12:34;;;;;;;36.28;28.50;;;17.30;99.90;;;;;;5034989;28;20048;-44
2023/05/09 09:15:04;;;;;;;34.20;26.05;;;17.40;99.90;;;;;;5034369;28;20040;-48
2023/05/09 09:17:34;;;;;;;34.45;26.63;;;17.50;99.90;;;;;;5034941;28;20124;-44
2023/05/09 09:20:04;;;;;;;33.83;26.52;;;17.50;99.90;;;;;;5034638;28;20044;-38
2023/05/09 09:22:34;;;;;;;35.45;27.88;;;17.60;99.90;;;;;;5034582;28;20084;-37
2023/05/09 09:25:00;;;;;;;34.70;26.33;;;17.60;99.90;;;;;;5034008;28;20037;-38
2023/05/09 09:27:27;;;;;;;31.90;26.80;;;17.70;99.90;;;;;;5034048;28;20045;-43
2023/05/09 09:29:52;;;;;;;32.85;27.80;;;17.60;99.90;;;;;;5029314;28;20126;-43
2023/05/09 09:32:18;;;;;;;34.15;27.25;;;17.60;99.90;;;;;;5031817;28;21503;-48
2023/05/09 09:34:48;;;;;;;32.85;27.90;;;17.80;99.90;;;;;;5035429;28;20056;-43
2023/05/09 09:37:22;;;;;;;36.05;26.90;;;17.80;99.90;;;;;;5015082;28;20043;-37
2023/05/09 09:39:55;;;;;;;30.40;25.75;;;17.80;99.90;;;;;;5033328;28;20040;-42
2023/05/09 09:42:22;;;;;;;;;;;17.80;99.90;;;;;;5034827;28;20290;-42
2023/05/09 09:45:01;;;;;;;32.65;27.73;;;17.70;99.90;;;;;;5033435;28;19928;-41
2023/05/09 09:47:32;;;;;;;33.42;28.13;;;17.80;99.90;;;;;;5033933;28;20113;-37
2023/05/09 09:50:15;;;;;;;36.90;28.20;;;17.70;99.90;;;;;;5033021;28;20456;-39
2023/05/09 09:52:49;;;;;;;32.13;28.30;;;17.70;99.90;;;;;;5033748;28;20102;-39
2023/05/09 09:55:15;;;;;;;33.17;27.25;;;17.70;99.90;;;;;;5033020;28;20550;-36
2023/05/09 09:57:43;;;;;;;35.15;27.17;;;17.70;99.90;;;;;;5045649;28;20041;-46
2023/05/09 10:00:11;;;;;;;38.65;27.95;;;17.60;99.90;;;;;;5033370;28;20052;-50
2023/05/09 10:02:48;;;;;;;32.80;27.13;;;17.60;99.90;;;;;;5033156;28;20084;-49
2023/05/09 10:05:29;;;;;;;32.35;26.55;;;17.60;99.90;;;;;;5039044;28;20427;-43
2023/05/09 10:08:03;;;;;;;32.28;26.60;;;17.70;99.90;;;;;;5031662;28;20131;-39
2023/05/09 10:10:33;;;;;;;31.33;26.80;;;17.80;99.90;;;;;;5032781;28;20501;-45
2023/05/09 10:13:02;;;;;;;30.00;26.80;;;17.80;99.90;;;;;;5034099;28;20040;-41
2023/05/09 10:15:30;;;;;;;29.83;26.75;;;17.80;99.90;;;;;;5033279;28;20565;-37
2023/05/09 10:17:57;;;;;;;30.77;26.63;;;17.80;99.90;;;;;;5015038;28;20060;-39
2023/05/09 10:20:24;;;;;;;32.85;27.63;;;17.80;99.90;;;;;;5014223;28;20053;-38
2023/05/09 10:22:56;;;;;;;30.27;25.85;;;17.70;99.90;;;;;;5032700;28;20040;-42
2023/05/09 10:25:31;;;;;;;27.83;23.98;;;17.90;99.90;;;;;;5036655;28;20745;-37
2023/05/09 10:28:00;;;;;;;29.10;26.10;;;17.90;99.90;;;;;;5038835;28;20044;-39
2023/05/09 10:30:38;;;;;;;29.60;24.50;;;17.80;99.90;;;;;;5033562;28;20529;-39
2023/05/09 10:33:11;;;;;;;28.38;25.35;;;17.90;99.90;;;;;;5032378;28;20640;-40
2023/05/09 10:35:43;;;;;;;;;;;17.80;99.90;;;;;;5031908;28;20041;-45
2023/05/09 10:38:11;;;;;;;28.83;25.10;;;17.80;99.90;;;;;;5032941;28;19921;-40
2023/05/09 10:40:38;;;;;;;27.50;23.83;;;17.60;99.90;;;;;;5032209;28;20057;-46
2023/05/09 10:43:06;;;;;;;29.27;26.17;;;17.60;99.90;;;;;;5013833;28;20122;-41
2023/05/09 10:45:33;;;;;;;31.35;26.13;;;17.60;99.90;;;;;;5031194;28;20111;-46
2023/05/09 10:48:02;;;;;;;28.92;25.55;;;17.50;99.90;;;;;;5031777;28;20068;-43
2023/05/09 10:50:29;;;;;;;28.63;24.30;;;17.50;99.90;;;;;;5032689;28;20378;-40
2023/05/09 10:53:04;;;;;;;28.65;25.30;;;17.50;99.90;;;;;;5032323;28;21128;-43
2023/05/09 10:55:36;;;;;;;28.52;25.23;;;17.50;99.90;;;;;;5031803;28;20040;-41
2023/05/09 10:58:27;;;;;;;28.38;25.52;;;17.50;99.90;;;;;;5014788;28;20106;-38
2023/05/09 11:00:57;;;;;;;30.00;24.33;;;17.40;99.90;;;;;;5032312;28;20450;-38
2023/05/09 11:03:25;;;;;;;29.55;25.33;;;17.30;99.90;;;;;;5032353;28;20170;-44
2023/05/09 11:05:53;;;;;;;29.38;25.20;;;17.30;99.90;;;;;;5012921;28;20449;-46
2023/05/09 11:08:27;;;;;;;28.08;25.00;;;17.30;99.90;;;;;;5032539;28;20466;-45
2023/05/09 11:10:54;;;;;;;28.75;25.50;;;17.20;99.90;;;;;;5039710;28;20052;-40
2023/05/09 11:13:29;;;;;;;29.38;26.25;;;17.30;99.90;;;;;;5039503;28;20230;-45
2023/05/09 11:16:00;;;;;;;28.95;25.75;;;17.30;99.90;;;;;;5031175;28;20087;-45
2023/05/09 11:18:27;;;;;;;28.65;25.23;;;17.30;99.90;;;;;;5032387;28;20049;-44
2023/05/09 11:20:53;;;;;;;31.77;26.35;;;17.40;99.90;;;;;;5032346;28;20075;-41
2023/05/09 11:23:26;;;;;;;29.33;26.10;;;17.40;99.90;;;;;;5031963;28;20048;-48
2023/05/09 11:26:02;;;;;;;29.85;26.13;;;17.40;99.90;;;;;;5030755;28;20387;-43
2023/05/09 11:28:33;;;;;;;31.85;27.27;;;17.30;99.90;;;;;;5032308;28;20053;-40
2023/05/09 11:31:16;;;;;;;32.58;29.10;;;17.40;99.90;;;;;;5032329;28;20053;-41
2023/05/09 11:33:45;;;;;;;34.30;29.65;;;17.50;99.90;;;;;;4995898;28;20390;-46
2023/05/09 11:36:14;;;;;;;34.00;28.95;;;17.50;99.90;;;;;;5031179;28;20071;-37
2023/05/09 11:38:41;;;;;;;31.65;28.23;;;17.60;99.90;;;;;;5018611;28;20505;-41
2023/05/09 11:41:07;;;;;;;30.40;26.98;;;17.50;99.90;;;;;;5018205;28;20044;-45
2023/05/09 11:43:35;;;;;;;31.45;28.00;;;17.60;99.90;;;;;;5036310;28;20053;-41
2023/05/09 11:46:01;;;;;;;30.50;27.50;;;17.50;99.90;;;;;;5034826;28;20037;-48
2023/05/09 11:48:27;;;;;;;30.85;27.60;;;17.70;99.90;;;;;;5017917;28;20375;-44
2023/05/09 11:50:53;;;;;;;30.17;27.17;;;17.80;99.90;;;;;;5036057;28;20440;-37
2023/05/09 11:53:18;;;;;;;31.40;28.10;;;17.90;99.90;;;;;;5035958;28;20047;-48
2023/05/09 11:55:44;;;;;;;30.95;27.65;;;17.90;99.90;;;;;;5034533;28;20471;-40
2023/05/09 11:58:10;;;;;;;30.75;27.75;;;17.90;99.90;;;;;;5035296;28;20048;-41
2023/05/09 12:00:45;;;;;;;32.97;29.67;;;17.80;99.90;;;;;;5035778;28;20091;-42
2023/05/09 12:03:12;;;;;;;29.70;26.83;;;17.80;99.90;;;;;;5035789;28;20041;-45
2023/05/09 12:05:41;;;;;;;31.27;28.15;;;17.70;99.90;;;;;;5033963;28;20060;-41
2023/05/09 12:08:08;;;;;;;30.98;27.65;;;17.60;99.90;;;;;;5035938;28;20036;-45
2023/05/09 12:10:37;;;;;;;30.65;27.63;;;17.60;99.90;;;;;;5036079;28;20055;-41
2023/05/09 12:13:03;;;;;;;29.95;26.95;;;17.50;99.90;;;;;;5035888;28;20051;-45
2023/05/09 12:15:29;;;;;;;29.80;26.90;;;17.40;99.90;;;;;;5034060;28;20037;-44
2023/05/09 12:18:03;;;;;;;26.73;24.13;;;17.40;99.90;;;;;;5035156;28;20044;-42
2023/05/09 12:20:49;;;;;;;26.83;24.23;;;17.20;99.90;;;;;;5035561;28;20040;-45
2023/05/09 12:23:17;;;;;;;27.10;24.52;;;17.20;99.90;;;;;;5017234;28;20041;-44
2023/05/09 12:25:54;;;;;;;25.20;22.75;;;17.20;99.90;;;;;;5033542;28;20045;-46
2023/05/09 12:28:22;;;;;;;23.73;21.45;;;17.00;99.90;;;;;;5034796;28;20048;-39
2023/05/09 12:30:48;;;;;;;22.83;20.63;;;16.90;99.90;;;;;;5035351;28;20045;-40